sensor_id;sensor_type;location;lat;lon;timestamp;temperature;humidity
36186;DHT22;22228;53.222;7.446;2023-03-15T00:01:56;1.70;99.90
36186;DHT22;22228;53.222;7.446;2023-03-15T00:04:17;1.80;99.90
36186;DHT22;22228;53.222;7.446;2023-03-15T00:06:38;1.80;99.90
36186;DHT22;22228;53.222;7.446;2023-03-15T00:08:59;1.90;99.90
36186;DHT22;22228;53.222;7.446;2023-03-15T00:11:20;1.90;99.90
36186;DHT22;22228;53.222;7.446;2023-03-15T00:13:40;1.90;99.90
36186;DHT22;22228;53.222;7.446;2023-03-15T00:16:01;2.00;99.90
36186;DHT22;22228;53.222;7.446;2023-03-15T00:18:22;1.90;99.90
36186;DHT22;22228;53.222;7.446;2023-03-15T00:20:43;1.90;99.90
36186;DHT22;22228;53.222;7.446;2023-03-15T00:23:06;1.90;99.90
36186;DHT22;22228;53.222;7.446;2023-03-15T00:25:27;1.80;99.90
36186;DHT22;22228;53.222;7.446;2023-03-15T00:27:48;1.80;99.90
36186;DHT22;22228;53.222;7.446;2023-03-15T00:30:09;1.70;99.90
36186;DHT22;22228;53.222;7.446;2023-03-15T00:32:30;1.60;99.90
36186;DHT22;22228;53.222;7.446;2023-03-15T00:34:50;1.60;99.90
36186;DHT22;22228;53.222;7.446;2023-03-15T00:37:13;1.70;99.90
36186;DHT22;22228;53.222;7.446;2023-03-15T00:39:36;1.70;99.90
36186;DHT22;22228;53.222;7.446;2023-03-15T00:42:01;1.70;99.90
36186;DHT22;22228;53.222;7.446;2023-03-15T00:44:22;1.70;99.90
36186;DHT22;22228;53.222;7.446;2023-03-15T00:46:43;1.70;99.90
36186;DHT22;22228;53.222;7.446;2023-03-15T00:49:04;1.70;99.90
36186;DHT22;22228;53.222;7.446;2023-03-15T00:51:25;1.70;99.90
36186;DHT22;22228;53.222;7.446;2023-03-15T00:53:47;1.70;99.90
36186;DHT22;22228;53.222;7.446;2023-03-15T00:56:10;1.70;99.90
36186;DHT22;22228;53.222;7.446;2023-03-15T00:58:31;1.80;99.90
36186;DHT22;22228;53.222;7.446;2023-03-15T01:00:52;1.80;99.90
36186;DHT22;22228;53.222;7.446;2023-03-15T01:03:12;1.80;99.90
36186;DHT22;22228;53.222;7.446;2023-03-15T01:05:35;1.80;99.90
36186;DHT22;22228;53.222;7.446;2023-03-15T01:07:56;1.80;99.90
36186;DHT22;22228;53.222;7.446;2023-03-15T01:10:18;1.70;99.90
36186;DHT22;22228;53.222;7.446;2023-03-15T01:12:40;1.70;99.90
36186;DHT22;22228;53.222;7.446;2023-03-15T04:00:33;0.80;99.90
36186;DHT22;22228;53.222;7.446;2023-03-15T04:02:54;0.60;99.90
36186;DHT22;22228;53.222;7.446;2023-03-15T04:05:15;0.50;99.90
36186;DHT22;22228;53.222;7.446;2023-03-15T04:07:37;0.30;99.90
36186;DHT22;22228;53.222;7.446;2023-03-15T04:09:58;0.20;99.90
36186;DHT22;22228;53.222;7.446;2023-03-15T04:12:20;0.00;99.90
36186;DHT22;22228;53.222;7.446;2023-03-15T04:14:41;-0.10;99.90
36186;DHT22;22228;53.222;7.446;2023-03-15T04:17:05;-0.20;99.90
36186;DHT22;22228;53.222;7.446;2023-03-15T04:19:27;-0.20;99.90
36186;DHT22;22228;53.222;7.446;2023-03-15T04:21:47;0.10;99.90
36186;DHT22;22228;53.222;7.446;2023-03-15T04:24:16;0.30;99.90
36186;DHT22;22228;53.222;7.446;2023-03-15T04:26:57;0.30;99.90
36186;DHT22;22228;53.222;7.446;2023-03-15T04:29:31;0.40;99.90
36186;DHT22;22228;53.222;7.446;2023-03-15T04:32:11;0.40;99.90
36186;DHT22;22228;53.222;7.446;2023-03-15T04:34:56;0.30;99.90
36186;DHT22;22228;53.222;7.446;2023-03-15T04:37:31;0.50;99.90
36186;DHT22;22228;53.222;7.446;2023-03-15T04:40:07;0.80;99.90
36186;DHT22;22228;53.222;7.446;2023-03-15T04:42:52;0.90;99.90
36186;DHT22;22228;53.222;7.446;2023-03-15T04:45:16;1.10;99.90
36186;DHT22;22228;53.222;7.446;2023-03-15T04:47:54;1.20;99.90
36186;DHT22;22228;53.222;7.446;2023-03-15T04:50:21;1.30;99.90
36186;DHT22;22228;53.222;7.446;2023-03-15T04:52:52;1.40;99.90
36186;DHT22;22228;53.222;7.446;2023-03-15T04:55:36;1.40;99.90
36186;DHT22;22228;53.222;7.446;2023-03-15T04:58:26;1.40;99.90
36186;DHT22;22228;53.222;7.446;2023-03-15T05:01:00;1.40;99.90
36186;DHT22;22228;53.222;7.446;2023-03-15T05:03:47;1.50;99.90
36186;DHT22;22228;53.222;7.446;2023-03-15T05:06:21;1.70;99.90
36186;DHT22;22228;53.222;7.446;2023-03-15T05:08:48;1.90;99.90
36186;DHT22;22228;53.222;7.446;2023-03-15T05:11:29;2.00;99.90
36186;DHT22;22228;53.222;7.446;2023-03-15T05:14:02;2.10;99.90
36186;DHT22;22228;53.222;7.446;2023-03-15T05:16:28;2.00;99.90
36186;DHT22;22228;53.222;7.446;2023-03-15T05:18:59;1.90;99.90
36186;DHT22;22228;53.222;7.446;2023-03-15T05:21:37;1.90;99.90
36186;DHT22;22228;53.222;7.446;2023-03-15T05:24:27;1.80;99.90
36186;DHT22;22228;53.222;7.446;2023-03-15T05:27:10;1.70;99.90
36186;DHT22;22228;53.222;7.446;2023-03-15T05:29:57;1.60;99.90
36186;DHT22;22228;53.222;7.446;2023-03-15T05:32:54;1.60;99.90
36186;DHT22;22228;53.222;7.446;2023-03-15T05:35:25;1.50;99.90
36186;DHT22;22228;53.222;7.446;2023-03-15T05:38:01;1.50;99.90
36186;DHT22;22228;53.222;7.446;2023-03-15T05:40:45;1.40;99.90
36186;DHT22;22228;53.222;7.446;2023-03-15T05:43:30;1.30;99.90
36186;DHT22;22228;53.222;7.446;2023-03-15T05:46:11;1.30;99.90
36186;DHT22;22228;53.222;7.446;2023-03-15T05:49:01;1.20;99.90
36186;DHT22;22228;53.222;7.446;2023-03-15T05:51:43;1.10;99.90
36186;DHT22;22228;53.222;7.446;2023-03-15T05:54:25;1.20;99.90
36186;DHT22;22228;53.222;7.446;2023-03-15T05:56:51;1.30;99.90
36186;DHT22;22228;53.222;7.446;2023-03-15T05:59:47;1.30;99.90
36186;DHT22;22228;53.222;7.446;2023-03-15T06:02:16;1.40;99.90
36186;DHT22;22228;53.222;7.446;2023-03-15T06:04:47;1.40;99.90
36186;DHT22;22228;53.222;7.446;2023-03-15T06:07:16;1.40;99.90
36186;DHT22;22228;53.222;7.446;2023-03-15T06:09:36;1.40;99.90
36186;DHT22;22228;53.222;7.446;2023-03-15T06:11:57;1.40;99.90
36186;DHT22;22228;53.222;7.446;2023-03-15T06:14:18;1.30;99.90
36186;DHT22;22228;53.222;7.446;2023-03-15T06:16:43;1.30;99.90
36186;DHT22;22228;53.222;7.446;2023-03-15T06:19:04;1.30;99.90
36186;DHT22;22228;53.222;7.446;2023-03-15T06:21:25;1.30;99.90
36186;DHT22;22228;53.222;7.446;2023-03-15T06:23:47;1.20;99.90
36186;DHT22;22228;53.222;7.446;2023-03-15T06:26:07;1.20;99.90
36186;DHT22;22228;53.222;7.446;2023-03-15T06:28:28;1.20;99.90
36186;DHT22;22228;53.222;7.446;2023-03-15T06:30:51;1.30;99.90
36186;DHT22;22228;53.222;7.446;2023-03-15T06:33:16;1.30;99.90
36186;DHT22;22228;53.222;7.446;2023-03-15T06:35:36;1.30;99.90
36186;DHT22;22228;53.222;7.446;2023-03-15T06:37:57;1.30;99.90
36186;DHT22;22228;53.222;7.446;2023-03-15T06:40:18;1.30;99.90
36186;DHT22;22228;53.222;7.446;2023-03-15T06:42:40;1.40;99.90
36186;DHT22;22228;53.222;7.446;2023-03-15T06:45:03;1.40;99.90
36186;DHT22;22228;53.222;7.446;2023-03-15T06:47:24;1.50;99.90
36186;DHT22;22228;53.222;7.446;2023-03-15T06:49:45;1.50;99.90
36186;DHT22;22228;53.222;7.446;2023-03-15T06:52:09;1.50;99.90
36186;DHT22;22228;53.222;7.446;2023-03-15T06:54:29;1.50;99.90
36186;DHT22;22228;53.222;7.446;2023-03-15T06:56:51;1.50;99.90
36186;DHT22;22228;53.222;7.446;2023-03-15T06:59:12;1.50;99.90
36186;DHT22;22228;53.222;7.446;2023-03-15T07:01:32;1.50;99.90
36186;DHT22;22228;53.222;7.446;2023-03-15T07:03:53;1.50;99.90
36186;DHT22;22228;53.222;7.446;2023-03-15T07:06:13;1.50;99.90
36186;DHT22;22228;53.222;7.446;2023-03-15T07:08:34;1.50;99.90
36186;DHT22;22228;53.222;7.446;2023-03-15T07:10:55;1.60;99.90
36186;DHT22;22228;53.222;7.446;2023-03-15T07:13:18;1.60;99.90
36186;DHT22;22228;53.222;7.446;2023-03-15T07:15:38;1.70;99.90
36186;DHT22;22228;53.222;7.446;2023-03-15T07:17:59;1.70;99.90
36186;DHT22;22228;53.222;7.446;2023-03-15T07:20:20;1.80;99.90
36186;DHT22;22228;53.222;7.446;2023-03-15T07:22:40;1.90;99.90
36186;DHT22;22228;53.222;7.446;2023-03-15T07:25:04;1.90;99.90
36186;DHT22;22228;53.222;7.446;2023-03-15T07:27:26;1.90;99.90
36186;DHT22;22228;53.222;7.446;2023-03-15T07:29:48;2.00;99.90
36186;DHT22;22228;53.222;7.446;2023-03-15T07:32:10;2.10;99.90
36186;DHT22;22228;53.222;7.446;2023-03-15T07:34:30;2.10;99.90
36186;DHT22;22228;53.222;7.446;2023-03-15T07:36:51;2.20;99.90
36186;DHT22;22228;53.222;7.446;2023-03-15T07:39:12;2.20;99.90
36186;DHT22;22228;53.222;7.446;2023-03-15T07:41:32;2.20;99.90
36186;DHT22;22228;53.222;7.446;2023-03-15T07:44:07;2.20;99.90
36186;DHT22;22228;53.222;7.446;2023-03-15T07:46:29;2.30;99.90
36186;DHT22;22228;53.222;7.446;2023-03-15T07:48:50;2.30;99.90
36186;DHT22;22228;53.222;7.446;2023-03-15T07:51:10;2.30;99.90
36186;DHT22;22228;53.222;7.446;2023-03-15T07:53:31;2.40;99.90
36186;DHT22;22228;53.222;7.446;2023-03-15T07:55:51;2.40;99.90
36186;DHT22;22228;53.222;7.446;2023-03-15T07:58:12;2.50;99.90
36186;DHT22;22228;53.222;7.446;2023-03-15T08:00:33;2.50;99.90
36186;DHT22;22228;53.222;7.446;2023-03-15T08:02:56;2.60;99.90
36186;DHT22;22228;53.222;7.446;2023-03-15T08:05:17;2.60;99.90
36186;DHT22;22228;53.222;7.446;2023-03-15T08:07:38;2.70;99.90
36186;DHT22;22228;53.222;7.446;2023-03-15T08:09:58;2.70;99.90
36186;DHT22;22228;53.222;7.446;2023-03-15T08:12:19;2.70;99.90
36186;DHT22;22228;53.222;7.446;2023-03-15T08:14:40;2.80;99.90
36186;DHT22;22228;53.222;7.446;2023-03-15T08:17:00;2.80;99.90
36186;DHT22;22228;53.222;7.446;2023-03-15T08:19:22;2.90;99.90
36186;DHT22;22228;53.222;7.446;2023-03-15T08:21:43;3.00;99.90
36186;DHT22;22228;53.222;7.446;2023-03-15T08:24:04;3.10;99.90
36186;DHT22;22228;53.222;7.446;2023-03-15T08:26:25;3.20;99.90
36186;DHT22;22228;53.222;7.446;2023-03-15T08:28:46;3.30;99.90
36186;DHT22;22228;53.222;7.446;2023-03-15T08:31:07;3.40;99.90
36186;DHT22;22228;53.222;7.446;2023-03-15T08:33:27;3.50;99.90
36186;DHT22;22228;53.222;7.446;2023-03-15T08:35:52;3.50;99.90
36186;DHT22;22228;53.222;7.446;2023-03-15T08:38:12;3.60;99.90
36186;DHT22;22228;53.222;7.446;2023-03-15T08:40:33;3.60;99.90
36186;DHT22;22228;53.222;7.446;2023-03-15T08:42:55;3.70;99.90
36186;DHT22;22228;53.222;7.446;2023-03-15T08:45:15;3.70;99.90
36186;DHT22;22228;53.222;7.446;2023-03-15T08:47:36;3.80;99.90
36186;DHT22;22228;53.222;7.446;2023-03-15T08:49:56;3.90;99.90
36186;DHT22;22228;53.222;7.446;2023-03-15T08:52:19;4.00;99.90
36186;DHT22;22228;53.222;7.446;2023-03-15T08:54:42;4.10;99.90
36186;DHT22;22228;53.222;7.446;2023-03-15T08:57:03;4.30;99.90
36186;DHT22;22228;53.222;7.446;2023-03-15T08:59:23;4.40;99.90
36186;DHT22;22228;53.222;7.446;2023-03-15T09:01:44;4.50;99.90
36186;DHT22;22228;53.222;7.446;2023-03-15T09:04:04;4.70;99.90
36186;DHT22;22228;53.222;7.446;2023-03-15T09:06:25;4.80;99.90
36186;DHT22;22228;53.222;7.446;2023-03-15T09:08:47;4.90;99.90
36186;DHT22;22228;53.222;7.446;2023-03-15T09:11:08;5.00;45.90
36186;DHT22;22228;53.222;7.446;2023-03-15T09:13:28;5.00;99.90
36186;DHT22;22228;53.222;7.446;2023-03-15T09:15:49;5.10;99.90
36186;DHT22;22228;53.222;7.446;2023-03-15T09:18:10;5.10;99.90
36186;DHT22;22228;53.222;7.446;2023-03-15T09:20:31;5.20;99.90
36186;DHT22;22228;53.222;7.446;2023-03-15T09:22:52;5.20;1.00
36186;DHT22;22228;53.222;7.446;2023-03-15T09:25:14;5.30;1.00
36186;DHT22;22228;53.222;7.446;2023-03-15T09:27:35;5.40;1.00
36186;DHT22;22228;53.222;7.446;2023-03-15T09:29:56;5.40;99.90
36186;DHT22;22228;53.222;7.446;2023-03-15T09:32:16;5.60;1.00
36186;DHT22;22228;53.222;7.446;2023-03-15T09:34:37;5.70;99.90
36186;DHT22;22228;53.222;7.446;2023-03-15T09:36:57;5.60;99.90
36186;DHT22;22228;53.222;7.446;2023-03-15T09:39:19;5.60;99.90
36186;DHT22;22228;53.222;7.446;2023-03-15T09:41:43;5.60;99.90
36186;DHT22;22228;53.222;7.446;2023-03-15T09:44:15;5.70;1.00
36186;DHT22;22228;53.222;7.446;2023-03-15T09:46:44;5.90;99.90
36186;DHT22;22228;53.222;7.446;2023-03-15T09:49:11;5.90;1.00
36186;DHT22;22228;53.222;7.446;2023-03-15T09:51:38;6.00;1.00
36186;DHT22;22228;53.222;7.446;2023-03-15T09:54:10;6.00;99.90
36186;DHT22;22228;53.222;7.446;2023-03-15T09:56:34;5.90;1.00
36186;DHT22;22228;53.222;7.446;2023-03-15T09:58:58;5.90;99.90
36186;DHT22;22228;53.222;7.446;2023-03-15T10:01:24;6.00;1.00
36186;DHT22;22228;53.222;7.446;2023-03-15T10:03:48;6.00;99.90
36186;DHT22;22228;53.222;7.446;2023-03-15T10:06:14;5.80;1.00
36186;DHT22;22228;53.222;7.446;2023-03-15T10:08:35;5.80;99.90
36186;DHT22;22228;53.222;7.446;2023-03-15T10:11:01;5.80;24.40
36186;DHT22;22228;53.222;7.446;2023-03-15T10:13:42;5.70;99.90
36186;DHT22;22228;53.222;7.446;2023-03-15T10:16:19;5.70;1.00
36186;DHT22;22228;53.222;7.446;2023-03-15T10:18:51;5.70;99.90
36186;DHT22;22228;53.222;7.446;2023-03-15T10:21:21;5.60;1.00
36186;DHT22;22228;53.222;7.446;2023-03-15T10:23:47;5.60;1.00
36186;DHT22;22228;53.222;7.446;2023-03-15T10:26:10;5.70;1.00
36186;DHT22;22228;53.222;7.446;2023-03-15T10:28:33;5.90;1.00
36186;DHT22;22228;53.222;7.446;2023-03-15T10:30:58;6.00;99.90
36186;DHT22;22228;53.222;7.446;2023-03-15T10:33:25;6.10;1.00
36186;DHT22;22228;53.222;7.446;2023-03-15T10:35:47;6.40;1.00
36186;DHT22;22228;53.222;7.446;2023-03-15T10:38:13;6.70;34.70
36186;DHT22;22228;53.222;7.446;2023-03-15T10:40:39;6.50;1.00
36186;DHT22;22228;53.222;7.446;2023-03-15T10:42:59;6.60;1.00
36186;DHT22;22228;53.222;7.446;2023-03-15T10:45:22;6.80;99.90
36186;DHT22;22228;53.222;7.446;2023-03-15T10:47:43;7.00;99.90
36186;DHT22;22228;53.222;7.446;2023-03-15T10:50:06;7.20;99.90
36186;DHT22;22228;53.222;7.446;2023-03-15T10:52:30;7.30;99.90
36186;DHT22;22228;53.222;7.446;2023-03-15T10:54:53;7.20;1.00
36186;DHT22;22228;53.222;7.446;2023-03-15T10:57:15;7.10;99.90
36186;DHT22;22228;53.222;7.446;2023-03-15T10:59:37;7.20;1.00
36186;DHT22;22228;53.222;7.446;2023-03-15T11:02:21;7.10;99.90
36186;DHT22;22228;53.222;7.446;2023-03-15T11:04:46;7.00;1.00
36186;DHT22;22228;53.222;7.446;2023-03-15T11:07:08;6.90;1.00
36186;DHT22;22228;53.222;7.446;2023-03-15T11:09:38;6.70;34.30
36186;DHT22;22228;53.222;7.446;2023-03-15T11:12:02;6.50;1.00
36186;DHT22;22228;53.222;7.446;2023-03-15T11:14:22;6.60;1.00
36186;DHT22;22228;53.222;7.446;2023-03-15T11:16:46;6.70;99.90
36186;DHT22;22228;53.222;7.446;2023-03-15T11:19:12;6.60;99.90
36186;DHT22;22228;53.222;7.446;2023-03-15T11:21:34;6.70;30.50
36186;DHT22;22228;53.222;7.446;2023-03-15T11:23:56;6.80;99.90
36186;DHT22;22228;53.222;7.446;2023-03-15T11:26:20;6.90;1.00
36186;DHT22;22228;53.222;7.446;2023-03-15T11:28:44;7.20;49.40
36186;DHT22;22228;53.222;7.446;2023-03-15T11:31:07;7.50;99.90
36186;DHT22;22228;53.222;7.446;2023-03-15T11:33:37;7.40;57.60
36186;DHT22;22228;53.222;7.446;2023-03-15T11:35:58;7.40;1.00
36186;DHT22;22228;53.222;7.446;2023-03-15T11:38:25;7.50;1.00
36186;DHT22;22228;53.222;7.446;2023-03-15T11:40:52;7.80;1.00
36186;DHT22;22228;53.222;7.446;2023-03-15T11:43:18;8.00;99.90
36186;DHT22;22228;53.222;7.446;2023-03-15T11:45:44;7.80;99.90
36186;DHT22;22228;53.222;7.446;2023-03-15T11:48:33;7.60;99.90
36186;DHT22;22228;53.222;7.446;2023-03-15T11:51:00;7.50;99.90
36186;DHT22;22228;53.222;7.446;2023-03-15T11:53:22;7.60;99.90
36186;DHT22;22228;53.222;7.446;2023-03-15T11:55:47;7.60;77.10
36186;DHT22;22228;53.222;7.446;2023-03-15T11:58:29;7.60;99.90
36186;DHT22;22228;53.222;7.446;2023-03-15T12:00:53;7.70;1.00
36186;DHT22;22228;53.222;7.446;2023-03-15T12:03:34;7.70;1.00
36186;DHT22;22228;53.222;7.446;2023-03-15T12:06:00;7.80;47.00
36186;DHT22;22228;53.222;7.446;2023-03-15T12:08:23;7.80;97.40
36186;DHT22;22228;53.222;7.446;2023-03-15T12:10:58;7.80;99.90
36186;DHT22;22228;53.222;7.446;2023-03-15T12:13:22;7.80;99.90
36186;DHT22;22228;53.222;7.446;2023-03-15T12:15:46;7.80;99.90
36186;DHT22;22228;53.222;7.446;2023-03-15T12:18:13;7.90;99.90
36186;DHT22;22228;53.222;7.446;2023-03-15T12:20:36;7.80;99.90
36186;DHT22;22228;53.222;7.446;2023-03-15T12:23:16;7.80;99.90
36186;DHT22;22228;53.222;7.446;2023-03-15T12:25:45;7.70;1.00
36186;DHT22;22228;53.222;7.446;2023-03-15T12:28:18;7.70;1.00
36186;DHT22;22228;53.222;7.446;2023-03-15T12:30:41;7.60;1.00
36186;DHT22;22228;53.222;7.446;2023-03-15T12:33:12;7.70;1.00
36186;DHT22;22228;53.222;7.446;2023-03-15T12:35:38;7.80;1.00
36186;DHT22;22228;53.222;7.446;2023-03-15T12:37:59;7.70;1.00
36186;DHT22;22228;53.222;7.446;2023-03-15T12:40:48;7.40;1.00
36186;DHT22;22228;53.222;7.446;2023-03-15T12:43:11;7.40;99.90
36186;DHT22;22228;53.222;7.446;2023-03-15T12:45:40;7.40;88.70
36186;DHT22;22228;53.222;7.446;2023-03-15T12:48:22;7.30;1.00
36186;DHT22;22228;53.222;7.446;2023-03-15T12:50:50;7.40;1.00
36186;DHT22;22228;53.222;7.446;2023-03-15T12:53:15;7.50;1.00
36186;DHT22;22228;53.222;7.446;2023-03-15T12:55:36;7.60;1.00
36186;DHT22;22228;53.222;7.446;2023-03-15T12:57:59;7.70;1.00
36186;DHT22;22228;53.222;7.446;2023-03-15T13:00:25;7.70;1.00
36186;DHT22;22228;53.222;7.446;2023-03-15T13:02:49;7.90;1.00
36186;DHT22;22228;53.222;7.446;2023-03-15T13:05:21;7.90;1.00
36186;DHT22;22228;53.222;7.446;2023-03-15T13:07:51;7.80;1.00
36186;DHT22;22228;53.222;7.446;2023-03-15T13:15:41;8.00;38.70
36186;DHT22;22228;53.222;7.446;2023-03-15T13:18:10;8.10;1.00
36186;DHT22;22228;53.222;7.446;2023-03-15T13:20:45;8.10;1.00
36186;DHT22;22228;53.222;7.446;2023-03-15T13:23:14;8.10;1.00
36186;DHT22;22228;53.222;7.446;2023-03-15T13:25:40;8.00;99.90
36186;DHT22;22228;53.222;7.446;2023-03-15T13:28:08;8.00;99.90
36186;DHT22;22228;53.222;7.446;2023-03-15T13:30:34;7.90;1.00
36186;DHT22;22228;53.222;7.446;2023-03-15T13:33:10;7.90;99.90
36186;DHT22;22228;53.222;7.446;2023-03-15T13:35:42;7.90;1.00
36186;DHT22;22228;53.222;7.446;2023-03-15T13:38:08;8.10;99.90
36186;DHT22;22228;53.222;7.446;2023-03-15T13:40:28;8.30;1.00
36186;DHT22;22228;53.222;7.446;2023-03-15T13:42:49;8.30;1.00
36186;DHT22;22228;53.222;7.446;2023-03-15T13:45:11;8.00;1.00
36186;DHT22;22228;53.222;7.446;2023-03-15T13:47:33;7.90;1.00
36186;DHT22;22228;53.222;7.446;2023-03-15T13:49:55;7.90;1.00
36186;DHT22;22228;53.222;7.446;2023-03-15T13:52:17;7.90;1.00
36186;DHT22;22228;53.222;7.446;2023-03-15T13:54:38;7.90;1.00
36186;DHT22;22228;53.222;7.446;2023-03-15T13:57:00;8.00;1.00
36186;DHT22;22228;53.222;7.446;2023-03-15T13:59:26;8.00;1.00
36186;DHT22;22228;53.222;7.446;2023-03-15T14:01:50;8.10;1.00
36186;DHT22;22228;53.222;7.446;2023-03-15T14:04:15;8.20;1.00
36186;DHT22;22228;53.222;7.446;2023-03-15T14:06:37;8.30;1.00
36186;DHT22;22228;53.222;7.446;2023-03-15T14:09:07;8.30;1.00
36186;DHT22;22228;53.222;7.446;2023-03-15T14:11:34;8.20;1.00
36186;DHT22;22228;53.222;7.446;2023-03-15T14:13:57;8.20;1.00
36186;DHT22;22228;53.222;7.446;2023-03-15T14:16:31;8.20;1.00
36186;DHT22;22228;53.222;7.446;2023-03-15T14:18:51;8.20;1.00
36186;DHT22;22228;53.222;7.446;2023-03-15T14:21:15;8.20;1.00
36186;DHT22;22228;53.222;7.446;2023-03-15T14:23:38;8.20;99.90
36186;DHT22;22228;53.222;7.446;2023-03-15T14:26:06;8.30;1.00
36186;DHT22;22228;53.222;7.446;2023-03-15T14:28:26;8.30;99.90
36186;DHT22;22228;53.222;7.446;2023-03-15T14:30:52;8.30;99.90
36186;DHT22;22228;53.222;7.446;2023-03-15T14:33:24;8.30;99.90
36186;DHT22;22228;53.222;7.446;2023-03-15T14:35:45;8.40;99.90
36186;DHT22;22228;53.222;7.446;2023-03-15T14:38:07;8.40;99.90
36186;DHT22;22228;53.222;7.446;2023-03-15T14:40:30;8.40;99.90
36186;DHT22;22228;53.222;7.446;2023-03-15T14:42:54;8.30;99.90
36186;DHT22;22228;53.222;7.446;2023-03-15T14:45:16;8.40;99.90
36186;DHT22;22228;53.222;7.446;2023-03-15T14:47:40;8.50;99.90
36186;DHT22;22228;53.222;7.446;2023-03-15T14:50:01;8.50;99.90
36186;DHT22;22228;53.222;7.446;2023-03-15T14:52:23;8.30;99.90
36186;DHT22;22228;53.222;7.446;2023-03-15T14:54:47;8.20;99.90
36186;DHT22;22228;53.222;7.446;2023-03-15T14:57:08;8.30;99.90
36186;DHT22;22228;53.222;7.446;2023-03-15T14:59:30;8.20;99.90
36186;DHT22;22228;53.222;7.446;2023-03-15T15:01:53;8.20;1.00
36186;DHT22;22228;53.222;7.446;2023-03-15T15:04:14;8.20;1.00
36186;DHT22;22228;53.222;7.446;2023-03-15T15:06:35;8.20;1.00
36186;DHT22;22228;53.222;7.446;2023-03-15T15:08:56;8.20;99.90
36186;DHT22;22228;53.222;7.446;2023-03-15T15:11:17;8.20;99.90
36186;DHT22;22228;53.222;7.446;2023-03-15T15:13:38;8.30;99.90
36186;DHT22;22228;53.222;7.446;2023-03-15T15:16:00;8.30;99.90
36186;DHT22;22228;53.222;7.446;2023-03-15T15:18:22;8.30;99.90
36186;DHT22;22228;53.222;7.446;2023-03-15T15:20:43;8.30;99.90
36186;DHT22;22228;53.222;7.446;2023-03-15T15:23:04;8.30;99.90
36186;DHT22;22228;53.222;7.446;2023-03-15T15:25:25;8.20;99.90
36186;DHT22;22228;53.222;7.446;2023-03-15T15:27:47;8.20;99.90
36186;DHT22;22228;53.222;7.446;2023-03-15T15:30:11;8.20;99.90
36186;DHT22;22228;53.222;7.446;2023-03-15T15:32:33;8.30;99.90
36186;DHT22;22228;53.222;7.446;2023-03-15T15:34:53;8.40;99.90
36186;DHT22;22228;53.222;7.446;2023-03-15T15:37:14;8.60;99.90
36186;DHT22;22228;53.222;7.446;2023-03-15T15:39:34;8.90;99.90
36186;DHT22;22228;53.222;7.446;2023-03-15T15:41:55;9.30;99.90
36186;DHT22;22228;53.222;7.446;2023-03-15T15:44:18;9.70;99.90
36186;DHT22;22228;53.222;7.446;2023-03-15T15:46:38;10.00;49.80
36186;DHT22;22228;53.222;7.446;2023-03-15T15:49:00;10.30;77.30
36186;DHT22;22228;53.222;7.446;2023-03-15T15:51:26;10.50;1.00
36186;DHT22;22228;53.222;7.446;2023-03-15T15:53:47;10.80;1.00
36186;DHT22;22228;53.222;7.446;2023-03-15T15:56:08;10.80;1.00
36186;DHT22;22228;53.222;7.446;2023-03-15T15:58:30;10.60;1.00
36186;DHT22;22228;53.222;7.446;2023-03-15T16:00:51;10.30;1.00
36186;DHT22;22228;53.222;7.446;2023-03-15T16:03:12;10.30;1.00
36186;DHT22;22228;53.222;7.446;2023-03-15T16:05:35;10.50;1.00
36186;DHT22;22228;53.222;7.446;2023-03-15T16:07:58;10.50;1.00
36186;DHT22;22228;53.222;7.446;2023-03-15T16:10:23;10.40;1.00
36186;DHT22;22228;53.222;7.446;2023-03-15T16:12:45;10.10;1.00
36186;DHT22;22228;53.222;7.446;2023-03-15T16:15:08;9.90;1.00
36186;DHT22;22228;53.222;7.446;2023-03-15T16:17:30;9.60;1.00
36186;DHT22;22228;53.222;7.446;2023-03-15T16:19:51;9.40;1.00
36186;DHT22;22228;53.222;7.446;2023-03-15T16:22:13;9.50;1.00
36186;DHT22;22228;53.222;7.446;2023-03-15T16:24:34;9.50;1.00
36186;DHT22;22228;53.222;7.446;2023-03-15T16:26:59;9.30;1.00
36186;DHT22;22228;53.222;7.446;2023-03-15T16:29:22;9.00;1.00
36186;DHT22;22228;53.222;7.446;2023-03-15T16:31:45;8.90;1.00
36186;DHT22;22228;53.222;7.446;2023-03-15T16:34:08;8.70;1.00
36186;DHT22;22228;53.222;7.446;2023-03-15T16:36:30;8.70;1.00
36186;DHT22;22228;53.222;7.446;2023-03-15T16:38:54;8.70;56.90
36186;DHT22;22228;53.222;7.446;2023-03-15T16:41:15;8.60;1.00
36186;DHT22;22228;53.222;7.446;2023-03-15T16:43:35;8.40;99.90
36186;DHT22;22228;53.222;7.446;2023-03-15T16:45:56;8.30;99.90
36186;DHT22;22228;53.222;7.446;2023-03-15T16:48:16;8.00;99.90
36186;DHT22;22228;53.222;7.446;2023-03-15T16:50:37;7.90;99.90
36186;DHT22;22228;53.222;7.446;2023-03-15T16:53:01;7.80;99.90
36186;DHT22;22228;53.222;7.446;2023-03-15T16:55:25;7.70;1.00
36186;DHT22;22228;53.222;7.446;2023-03-15T16:57:46;7.60;1.00
36186;DHT22;22228;53.222;7.446;2023-03-15T17:00:11;7.50;1.00
36186;DHT22;22228;53.222;7.446;2023-03-15T17:02:34;7.40;1.00
36186;DHT22;22228;53.222;7.446;2023-03-15T17:04:55;7.20;99.90
36186;DHT22;22228;53.222;7.446;2023-03-15T17:07:16;7.00;99.90
36186;DHT22;22228;53.222;7.446;2023-03-15T17:09:36;6.80;1.00
36186;DHT22;22228;53.222;7.446;2023-03-15T17:11:58;6.70;1.00
36186;DHT22;22228;53.222;7.446;2023-03-15T17:14:24;6.50;1.00
36186;DHT22;22228;53.222;7.446;2023-03-15T17:16:45;6.50;1.00
36186;DHT22;22228;53.222;7.446;2023-03-15T17:19:10;6.30;1.00
36186;DHT22;22228;53.222;7.446;2023-03-15T17:21:32;6.20;1.00
36186;DHT22;22228;53.222;7.446;2023-03-15T17:23:54;6.10;1.00
36186;DHT22;22228;53.222;7.446;2023-03-15T17:26:17;6.00;99.90
36186;DHT22;22228;53.222;7.446;2023-03-15T17:28:39;5.90;3.80
36186;DHT22;22228;53.222;7.446;2023-03-15T17:31:01;5.70;1.00
36186;DHT22;22228;53.222;7.446;2023-03-15T17:33:21;5.60;99.90
36186;DHT22;22228;53.222;7.446;2023-03-15T17:35:52;5.50;1.00
36186;DHT22;22228;53.222;7.446;2023-03-15T17:38:17;5.40;1.00
36186;DHT22;22228;53.222;7.446;2023-03-15T17:40:39;5.30;1.00
36186;DHT22;22228;53.222;7.446;2023-03-15T17:43:01;5.30;1.00
36186;DHT22;22228;53.222;7.446;2023-03-15T17:45:25;5.20;1.00
36186;DHT22;22228;53.222;7.446;2023-03-15T17:47:46;5.00;99.90
36186;DHT22;22228;53.222;7.446;2023-03-15T17:50:08;5.00;1.00
36186;DHT22;22228;53.222;7.446;2023-03-15T17:52:28;4.80;99.90
36186;DHT22;22228;53.222;7.446;2023-03-15T17:54:49;4.80;99.90
36186;DHT22;22228;53.222;7.446;2023-03-15T17:57:10;4.70;1.00
36186;DHT22;22228;53.222;7.446;2023-03-15T17:59:31;4.60;22.10
36186;DHT22;22228;53.222;7.446;2023-03-15T18:01:52;4.60;1.00
36186;DHT22;22228;53.222;7.446;2023-03-15T18:04:14;4.50;1.00
36186;DHT22;22228;53.222;7.446;2023-03-15T18:06:35;4.50;1.00
36186;DHT22;22228;53.222;7.446;2023-03-15T18:08:55;4.50;99.90
36186;DHT22;22228;53.222;7.446;2023-03-15T18:11:20;4.40;1.00
36186;DHT22;22228;53.222;7.446;2023-03-15T18:13:42;4.30;99.90
36186;DHT22;22228;53.222;7.446;2023-03-15T18:16:02;4.30;99.90
36186;DHT22;22228;53.222;7.446;2023-03-15T18:18:24;4.20;1.00
36186;DHT22;22228;53.222;7.446;2023-03-15T18:20:44;4.10;99.90
36186;DHT22;22228;53.222;7.446;2023-03-15T18:23:05;4.00;99.90
36186;DHT22;22228;53.222;7.446;2023-03-15T18:25:27;3.90;99.90